sensor_id;sensor_type;location;lat;lon;timestamp;temperature;humidity
37910;DHT22;23741;49.446;8.754;2023-07-31T00:01:38;20.90;62.20
37910;DHT22;23741;49.446;8.754;2023-07-31T00:03:40;20.90;62.30
37910;DHT22;23741;49.446;8.754;2023-07-31T00:05:42;20.90;62.50
37910;DHT22;23741;49.446;8.754;2023-07-31T00:07:44;20.90;62.30
37910;DHT22;23741;49.446;8.754;2023-07-31T00:09:45;20.90;62.60
37910;DHT22;23741;49.446;8.754;2023-07-31T00:11:52;20.90;62.40
37910;DHT22;23741;49.446;8.754;2023-07-31T00:13:54;20.90;62.40
37910;DHT22;23741;49.446;8.754;2023-07-31T00:15:56;20.90;62.30
37910;DHT22;23741;49.446;8.754;2023-07-31T00:17:58;20.90;62.10
37910;DHT22;23741;49.446;8.754;2023-07-31T00:20:00;20.90;62.00
37910;DHT22;23741;49.446;8.754;2023-07-31T00:22:02;20.90;61.80
37910;DHT22;23741;49.446;8.754;2023-07-31T00:24:04;20.90;62.30
37910;DHT22;23741;49.446;8.754;2023-07-31T00:26:05;20.90;62.40
37910;DHT22;23741;49.446;8.754;2023-07-31T00:28:07;20.90;62.70
37910;DHT22;23741;49.446;8.754;2023-07-31T00:30:10;20.90;62.20
37910;DHT22;23741;49.446;8.754;2023-07-31T00:32:12;20.90;62.20
37910;DHT22;23741;49.446;8.754;2023-07-31T00:34:14;20.90;61.50
37910;DHT22;23741;49.446;8.754;2023-07-31T00:36:15;20.90;61.70
37910;DHT22;23741;49.446;8.754;2023-07-31T00:38:19;20.90;61.40
37910;DHT22;23741;49.446;8.754;2023-07-31T00:40:21;20.90;61.20
37910;DHT22;23741;49.446;8.754;2023-07-31T00:42:24;20.90;61.50
37910;DHT22;23741;49.446;8.754;2023-07-31T00:44:26;21.00;62.00
37910;DHT22;23741;49.446;8.754;2023-07-31T00:46:28;20.90;61.40
37910;DHT22;23741;49.446;8.754;2023-07-31T00:48:30;20.90;61.00
37910;DHT22;23741;49.446;8.754;2023-07-31T00:50:33;21.00;60.70
37910;DHT22;23741;49.446;8.754;2023-07-31T00:52:36;20.90;59.70
37910;DHT22;23741;49.446;8.754;2023-07-31T00:54:38;21.00;60.00
37910;DHT22;23741;49.446;8.754;2023-07-31T00:56:40;21.00;60.90
37910;DHT22;23741;49.446;8.754;2023-07-31T00:58:43;21.10;61.10
37910;DHT22;23741;49.446;8.754;2023-07-31T01:00:45;21.00;60.90
37910;DHT22;23741;49.446;8.754;2023-07-31T01:02:48;21.00;60.40
37910;DHT22;23741;49.446;8.754;2023-07-31T01:04:50;21.00;60.80
37910;DHT22;23741;49.446;8.754;2023-07-31T01:11:23;21.00;59.00
37910;DHT22;23741;49.446;8.754;2023-07-31T01:13:28;21.00;59.50
37910;DHT22;23741;49.446;8.754;2023-07-31T01:15:30;21.00;59.90
37910;DHT22;23741;49.446;8.754;2023-07-31T01:17:32;21.00;59.80
37910;DHT22;23741;49.446;8.754;2023-07-31T01:19:34;21.00;60.00
37910;DHT22;23741;49.446;8.754;2023-07-31T01:26:15;21.10;59.70
37910;DHT22;23741;49.446;8.754;2023-07-31T01:31:00;21.10;58.60
37910;DHT22;23741;49.446;8.754;2023-07-31T01:33:03;21.10;59.00
37910;DHT22;23741;49.446;8.754;2023-07-31T01:35:09;21.10;58.70
37910;DHT22;23741;49.446;8.754;2023-07-31T01:37:11;21.00;58.30
37910;DHT22;23741;49.446;8.754;2023-07-31T01:39:12;21.10;58.60
37910;DHT22;23741;49.446;8.754;2023-07-31T01:41:17;21.00;58.40
37910;DHT22;23741;49.446;8.754;2023-07-31T01:43:19;21.10;58.50
37910;DHT22;23741;49.446;8.754;2023-07-31T01:45:21;21.00;58.80
37910;DHT22;23741;49.446;8.754;2023-07-31T01:47:23;21.10;58.60
37910;DHT22;23741;49.446;8.754;2023-07-31T01:49:26;21.00;58.40
37910;DHT22;23741;49.446;8.754;2023-07-31T01:51:28;21.10;58.70
37910;DHT22;23741;49.446;8.754;2023-07-31T01:53:31;21.10;58.70
37910;DHT22;23741;49.446;8.754;2023-07-31T01:55:33;21.10;59.10
37910;DHT22;23741;49.446;8.754;2023-07-31T01:57:36;21.10;59.10
37910;DHT22;23741;49.446;8.754;2023-07-31T01:59:38;21.20;59.20
37910;DHT22;23741;49.446;8.754;2023-07-31T02:01:40;21.10;58.40
37910;DHT22;23741;49.446;8.754;2023-07-31T02:03:43;21.10;58.10
37910;DHT22;23741;49.446;8.754;2023-07-31T02:05:45;21.10;58.00
37910;DHT22;23741;49.446;8.754;2023-07-31T02:07:47;21.10;58.10
37910;DHT22;23741;49.446;8.754;2023-07-31T02:09:49;21.20;58.40
37910;DHT22;23741;49.446;8.754;2023-07-31T02:11:51;21.10;58.40
37910;DHT22;23741;49.446;8.754;2023-07-31T02:13:53;21.10;58.30
37910;DHT22;23741;49.446;8.754;2023-07-31T02:15:55;21.10;58.30
37910;DHT22;23741;49.446;8.754;2023-07-31T02:17:57;21.10;58.60
37910;DHT22;23741;49.446;8.754;2023-07-31T02:20:00;21.10;58.30
37910;DHT22;23741;49.446;8.754;2023-07-31T02:22:02;21.10;58.00
37910;DHT22;23741;49.446;8.754;2023-07-31T02:24:04;21.10;57.90
37910;DHT22;23741;49.446;8.754;2023-07-31T02:26:06;21.00;58.10
37910;DHT22;23741;49.446;8.754;2023-07-31T02:28:07;21.10;57.90
37910;DHT22;23741;49.446;8.754;2023-07-31T02:30:10;21.10;57.80
37910;DHT22;23741;49.446;8.754;2023-07-31T02:32:12;21.00;57.60
37910;DHT22;23741;49.446;8.754;2023-07-31T02:34:15;21.10;57.80
37910;DHT22;23741;49.446;8.754;2023-07-31T02:36:17;21.10;57.80
37910;DHT22;23741;49.446;8.754;2023-07-31T02:38:18;21.10;58.10
37910;DHT22;23741;49.446;8.754;2023-07-31T02:40:20;21.10;57.90
37910;DHT22;23741;49.446;8.754;2023-07-31T02:42:22;21.00;57.80
37910;DHT22;23741;49.446;8.754;2023-07-31T02:44:24;21.00;57.90
37910;DHT22;23741;49.446;8.754;2023-07-31T02:46:26;21.00;57.90
37910;DHT22;23741;49.446;8.754;2023-07-31T02:48:28;21.10;57.70
37910;DHT22;23741;49.446;8.754;2023-07-31T02:50:29;21.00;57.60
37910;DHT22;23741;49.446;8.754;2023-07-31T02:52:31;21.00;57.60
37910;DHT22;23741;49.446;8.754;2023-07-31T02:54:33;21.00;58.10
37910;DHT22;23741;49.446;8.754;2023-07-31T02:56:35;21.00;58.20
37910;DHT22;23741;49.446;8.754;2023-07-31T02:58:37;21.00;58.20
37910;DHT22;23741;49.446;8.754;2023-07-31T03:00:42;21.00;58.20
37910;DHT22;23741;49.446;8.754;2023-07-31T03:02:44;21.00;58.90
37910;DHT22;23741;49.446;8.754;2023-07-31T03:04:46;21.10;58.00
37910;DHT22;23741;49.446;8.754;2023-07-31T03:06:49;21.00;58.20
37910;DHT22;23741;49.446;8.754;2023-07-31T03:08:50;21.10;59.10
37910;DHT22;23741;49.446;8.754;2023-07-31T03:10:52;21.10;58.70
37910;DHT22;23741;49.446;8.754;2023-07-31T03:12:54;21.10;58.30
37910;DHT22;23741;49.446;8.754;2023-07-31T03:14:56;21.10;58.30
37910;DHT22;23741;49.446;8.754;2023-07-31T03:16:57;21.10;58.10
37910;DHT22;23741;49.446;8.754;2023-07-31T03:18:59;21.10;57.70
37910;DHT22;23741;49.446;8.754;2023-07-31T03:21:01;21.00;57.90
37910;DHT22;23741;49.446;8.754;2023-07-31T03:23:03;21.10;57.80
37910;DHT22;23741;49.446;8.754;2023-07-31T03:25:05;21.10;58.20
37910;DHT22;23741;49.446;8.754;2023-07-31T03:27:07;21.10;58.00
37910;DHT22;23741;49.446;8.754;2023-07-31T03:29:09;21.10;57.90
37910;DHT22;23741;49.446;8.754;2023-07-31T03:31:11;21.10;58.20
37910;DHT22;23741;49.446;8.754;2023-07-31T03:33:13;21.10;58.30
37910;DHT22;23741;49.446;8.754;2023-07-31T03:35:15;21.10;57.80
37910;DHT22;23741;49.446;8.754;2023-07-31T03:37:17;21.10;57.70
37910;DHT22;23741;49.446;8.754;2023-07-31T03:39:19;21.10;57.60
37910;DHT22;23741;49.446;8.754;2023-07-31T03:41:20;21.10;57.40
37910;DHT22;23741;49.446;8.754;2023-07-31T03:43:22;21.10;57.40
37910;DHT22;23741;49.446;8.754;2023-07-31T03:45:24;21.00;57.90
37910;DHT22;23741;49.446;8.754;2023-07-31T03:47:26;21.00;58.10
37910;DHT22;23741;49.446;8.754;2023-07-31T03:49:28;21.10;58.10
37910;DHT22;23741;49.446;8.754;2023-07-31T03:51:30;21.10;58.00
37910;DHT22;23741;49.446;8.754;2023-07-31T03:53:32;21.10;58.30
37910;DHT22;23741;49.446;8.754;2023-07-31T03:55:33;21.10;58.00
37910;DHT22;23741;49.446;8.754;2023-07-31T03:57:35;21.10;58.40
37910;DHT22;23741;49.446;8.754;2023-07-31T03:59:37;21.00;58.30
37910;DHT22;23741;49.446;8.754;2023-07-31T04:01:42;21.10;58.10
37910;DHT22;23741;49.446;8.754;2023-07-31T04:03:45;21.10;57.90
37910;DHT22;23741;49.446;8.754;2023-07-31T04:05:46;21.10;57.80
37910;DHT22;23741;49.446;8.754;2023-07-31T04:07:48;21.10;58.20
37910;DHT22;23741;49.446;8.754;2023-07-31T04:09:50;21.10;58.40
37910;DHT22;23741;49.446;8.754;2023-07-31T04:11:52;21.10;58.00
37910;DHT22;23741;49.446;8.754;2023-07-31T04:13:53;21.00;58.40
37910;DHT22;23741;49.446;8.754;2023-07-31T04:15:55;21.00;58.70
37910;DHT22;23741;49.446;8.754;2023-07-31T04:17:57;21.00;58.00
37910;DHT22;23741;49.446;8.754;2023-07-31T04:19:59;21.00;58.10
37910;DHT22;23741;49.446;8.754;2023-07-31T04:22:01;21.00;59.00
37910;DHT22;23741;49.446;8.754;2023-07-31T04:24:03;21.00;58.60
37910;DHT22;23741;49.446;8.754;2023-07-31T04:26:05;21.00;58.50
37910;DHT22;23741;49.446;8.754;2023-07-31T04:28:06;21.00;58.00
37910;DHT22;23741;49.446;8.754;2023-07-31T04:30:09;21.00;57.90
37910;DHT22;23741;49.446;8.754;2023-07-31T04:32:12;21.00;57.90
37910;DHT22;23741;49.446;8.754;2023-07-31T04:34:14;21.00;58.20
37910;DHT22;23741;49.446;8.754;2023-07-31T04:36:15;21.00;57.90
37910;DHT22;23741;49.446;8.754;2023-07-31T04:38:18;21.00;57.60
37910;DHT22;23741;49.446;8.754;2023-07-31T04:40:20;21.00;58.00
37910;DHT22;23741;49.446;8.754;2023-07-31T04:42:22;21.00;58.10
37910;DHT22;23741;49.446;8.754;2023-07-31T04:44:24;21.00;58.10
37910;DHT22;23741;49.446;8.754;2023-07-31T04:46:26;21.00;57.80
37910;DHT22;23741;49.446;8.754;2023-07-31T04:48:27;21.00;58.10
37910;DHT22;23741;49.446;8.754;2023-07-31T04:50:29;21.00;57.90
37910;DHT22;23741;49.446;8.754;2023-07-31T04:52:32;20.90;57.80
37910;DHT22;23741;49.446;8.754;2023-07-31T04:54:33;20.90;57.80
37910;DHT22;23741;49.446;8.754;2023-07-31T04:56:35;20.90;57.80
37910;DHT22;23741;49.446;8.754;2023-07-31T04:58:37;20.90;57.70
37910;DHT22;23741;49.446;8.754;2023-07-31T05:00:39;20.90;57.90
37910;DHT22;23741;49.446;8.754;2023-07-31T05:02:41;20.90;58.00
37910;DHT22;23741;49.446;8.754;2023-07-31T05:04:43;20.90;57.90
37910;DHT22;23741;49.446;8.754;2023-07-31T05:06:45;20.90;58.50
37910;DHT22;23741;49.446;8.754;2023-07-31T05:08:47;20.90;58.70
37910;DHT22;23741;49.446;8.754;2023-07-31T05:10:48;20.80;59.10
37910;DHT22;23741;49.446;8.754;2023-07-31T05:12:50;20.80;58.60
37910;DHT22;23741;49.446;8.754;2023-07-31T05:14:52;20.80;59.00
37910;DHT22;23741;49.446;8.754;2023-07-31T05:16:54;20.90;58.80
37910;DHT22;23741;49.446;8.754;2023-07-31T05:18:55;20.90;58.80
37910;DHT22;23741;49.446;8.754;2023-07-31T05:20:57;20.90;58.40
37910;DHT22;23741;49.446;8.754;2023-07-31T05:22:59;20.90;58.20
37910;DHT22;23741;49.446;8.754;2023-07-31T05:25:01;20.90;58.60
37910;DHT22;23741;49.446;8.754;2023-07-31T05:27:03;20.90;58.70
37910;DHT22;23741;49.446;8.754;2023-07-31T05:29:05;20.80;58.40
37910;DHT22;23741;49.446;8.754;2023-07-31T05:31:07;20.90;58.50
37910;DHT22;23741;49.446;8.754;2023-07-31T05:33:09;20.80;58.90
37910;DHT22;23741;49.446;8.754;2023-07-31T05:35:14;20.80;58.20
37910;DHT22;23741;49.446;8.754;2023-07-31T05:37:16;20.80;58.60
37910;DHT22;23741;49.446;8.754;2023-07-31T05:39:18;20.90;58.20
37910;DHT22;23741;49.446;8.754;2023-07-31T05:41:21;20.80;58.50
37910;DHT22;23741;49.446;8.754;2023-07-31T05:43:23;20.80;58.40
37910;DHT22;23741;49.446;8.754;2023-07-31T05:45:25;20.80;58.40
37910;DHT22;23741;49.446;8.754;2023-07-31T05:47:27;20.80;58.40
37910;DHT22;23741;49.446;8.754;2023-07-31T05:49:29;20.80;58.60
37910;DHT22;23741;49.446;8.754;2023-07-31T05:51:31;20.80;58.80
37910;DHT22;23741;49.446;8.754;2023-07-31T05:53:32;20.80;59.10
37910;DHT22;23741;49.446;8.754;2023-07-31T05:55:34;20.80;59.40
37910;DHT22;23741;49.446;8.754;2023-07-31T05:57:36;20.80;59.00
37910;DHT22;23741;49.446;8.754;2023-07-31T05:59:38;20.90;59.10
37910;DHT22;23741;49.446;8.754;2023-07-31T06:01:40;20.80;59.30
37910;DHT22;23741;49.446;8.754;2023-07-31T06:03:42;20.90;59.30
37910;DHT22;23741;49.446;8.754;2023-07-31T06:05:44;20.90;58.90
37910;DHT22;23741;49.446;8.754;2023-07-31T06:07:46;20.90;59.30
37910;DHT22;23741;49.446;8.754;2023-07-31T06:09:48;20.90;59.60
37910;DHT22;23741;49.446;8.754;2023-07-31T06:11:51;20.90;59.50
37910;DHT22;23741;49.446;8.754;2023-07-31T06:13:53;20.90;59.60
37910;DHT22;23741;49.446;8.754;2023-07-31T06:15:55;20.90;59.70
37910;DHT22;23741;49.446;8.754;2023-07-31T06:17:57;20.90;59.50
37910;DHT22;23741;49.446;8.754;2023-07-31T06:19:59;21.00;59.50
37910;DHT22;23741;49.446;8.754;2023-07-31T06:22:01;20.90;59.50
37910;DHT22;23741;49.446;8.754;2023-07-31T06:24:03;21.00;59.20
37910;DHT22;23741;49.446;8.754;2023-07-31T06:26:05;21.00;59.40
37910;DHT22;23741;49.446;8.754;2023-07-31T06:28:07;21.00;59.20
37910;DHT22;23741;49.446;8.754;2023-07-31T06:30:09;21.00;59.30
37910;DHT22;23741;49.446;8.754;2023-07-31T06:32:11;21.00;59.30
37910;DHT22;23741;49.446;8.754;2023-07-31T06:34:13;21.00;59.50
37910;DHT22;23741;49.446;8.754;2023-07-31T06:36:14;21.00;59.20
37910;DHT22;23741;49.446;8.754;2023-07-31T06:38:22;20.90;59.00
37910;DHT22;23741;49.446;8.754;2023-07-31T06:40:25;21.00;58.70
37910;DHT22;23741;49.446;8.754;2023-07-31T06:42:27;21.00;59.00
37910;DHT22;23741;49.446;8.754;2023-07-31T06:44:29;21.00;59.40
37910;DHT22;23741;49.446;8.754;2023-07-31T06:46:31;21.00;59.10
37910;DHT22;23741;49.446;8.754;2023-07-31T06:48:33;21.00;58.90
37910;DHT22;23741;49.446;8.754;2023-07-31T06:50:35;21.00;58.80
37910;DHT22;23741;49.446;8.754;2023-07-31T06:52:37;21.00;59.10
37910;DHT22;23741;49.446;8.754;2023-07-31T06:54:39;21.00;59.00
37910;DHT22;23741;49.446;8.754;2023-07-31T06:56:41;21.00;59.00
37910;DHT22;23741;49.446;8.754;2023-07-31T06:58:43;21.00;59.00
37910;DHT22;23741;49.446;8.754;2023-07-31T07:00:44;21.00;58.70
37910;DHT22;23741;49.446;8.754;2023-07-31T07:02:47;21.00;58.80
37910;DHT22;23741;49.446;8.754;2023-07-31T07:04:49;21.00;58.70
37910;DHT22;23741;49.446;8.754;2023-07-31T07:06:51;21.00;58.90
37910;DHT22;23741;49.446;8.754;2023-07-31T07:08:53;21.00;58.70
37910;DHT22;23741;49.446;8.754;2023-07-31T07:10:55;21.00;58.70
37910;DHT22;23741;49.446;8.754;2023-07-31T07:12:57;21.00;59.30
37910;DHT22;23741;49.446;8.754;2023-07-31T07:14:59;21.00;59.40
37910;DHT22;23741;49.446;8.754;2023-07-31T07:17:01;21.00;59.30
37910;DHT22;23741;49.446;8.754;2023-07-31T07:19:03;21.00;58.90
37910;DHT22;23741;49.446;8.754;2023-07-31T07:21:06;21.10;59.10
37910;DHT22;23741;49.446;8.754;2023-07-31T07:23:08;21.10;59.00
37910;DHT22;23741;49.446;8.754;2023-07-31T07:25:12;21.10;59.10
37910;DHT22;23741;49.446;8.754;2023-07-31T07:27:14;21.10;58.90
37910;DHT22;23741;49.446;8.754;2023-07-31T07:29:17;21.10;59.10
37910;DHT22;23741;49.446;8.754;2023-07-31T07:31:19;21.10;59.60
37910;DHT22;23741;49.446;8.754;2023-07-31T07:33:21;21.20;59.10
37910;DHT22;23741;49.446;8.754;2023-07-31T07:35:22;21.20;59.30
37910;DHT22;23741;49.446;8.754;2023-07-31T07:37:24;21.20;59.10
37910;DHT22;23741;49.446;8.754;2023-07-31T07:39:26;21.20;59.10
37910;DHT22;23741;49.446;8.754;2023-07-31T07:41:28;21.20;59.20
37910;DHT22;23741;49.446;8.754;2023-07-31T07:43:30;21.20;59.50
37910;DHT22;23741;49.446;8.754;2023-07-31T07:45:32;21.20;59.70
37910;DHT22;23741;49.446;8.754;2023-07-31T07:47:34;21.30;59.60
37910;DHT22;23741;49.446;8.754;2023-07-31T07:49:36;21.30;59.30
37910;DHT22;23741;49.446;8.754;2023-07-31T07:51:38;21.30;59.30
37910;DHT22;23741;49.446;8.754;2023-07-31T07:53:40;21.30;59.40
37910;DHT22;23741;49.446;8.754;2023-07-31T07:55:42;21.30;59.20
37910;DHT22;23741;49.446;8.754;2023-07-31T07:57:44;21.30;59.40
37910;DHT22;23741;49.446;8.754;2023-07-31T07:59:46;21.40;59.50
37910;DHT22;23741;49.446;8.754;2023-07-31T08:01:48;21.40;59.50
37910;DHT22;23741;49.446;8.754;2023-07-31T08:03:50;21.40;59.50
37910;DHT22;23741;49.446;8.754;2023-07-31T08:05:52;21.40;59.30
37910;DHT22;23741;49.446;8.754;2023-07-31T08:07:54;21.40;60.00
37910;DHT22;23741;49.446;8.754;2023-07-31T08:09:55;21.40;59.70
37910;DHT22;23741;49.446;8.754;2023-07-31T08:11:57;21.40;60.30
37910;DHT22;23741;49.446;8.754;2023-07-31T08:14:03;21.40;59.80
37910;DHT22;23741;49.446;8.754;2023-07-31T08:16:05;21.50;59.50
37910;DHT22;23741;49.446;8.754;2023-07-31T08:18:07;21.50;59.50
37910;DHT22;23741;49.446;8.754;2023-07-31T08:20:09;21.50;59.80
37910;DHT22;23741;49.446;8.754;2023-07-31T08:22:12;21.50;59.80
37910;DHT22;23741;49.446;8.754;2023-07-31T08:24:13;21.60;59.80
37910;DHT22;23741;49.446;8.754;2023-07-31T08:26:19;21.60;59.80
37910;DHT22;23741;49.446;8.754;2023-07-31T08:28:20;21.60;59.90
37910;DHT22;23741;49.446;8.754;2023-07-31T08:30:22;21.70;59.70
37910;DHT22;23741;49.446;8.754;2023-07-31T08:32:24;21.70;59.70
37910;DHT22;23741;49.446;8.754;2023-07-31T08:34:26;21.70;59.40
37910;DHT22;23741;49.446;8.754;2023-07-31T08:36:28;21.80;59.40
37910;DHT22;23741;49.446;8.754;2023-07-31T08:38:31;21.80;59.30
37910;DHT22;23741;49.446;8.754;2023-07-31T08:40:36;21.80;59.00
37910;DHT22;23741;49.446;8.754;2023-07-31T08:42:46;21.90;59.00
37910;DHT22;23741;49.446;8.754;2023-07-31T08:44:49;21.90;59.10
37910;DHT22;23741;49.446;8.754;2023-07-31T08:46:51;21.90;58.90
37910;DHT22;23741;49.446;8.754;2023-07-31T08:48:55;21.90;58.90
37910;DHT22;23741;49.446;8.754;2023-07-31T08:50:56;21.90;58.60
37910;DHT22;23741;49.446;8.754;2023-07-31T08:52:58;22.00;58.80
37910;DHT22;23741;49.446;8.754;2023-07-31T08:55:00;21.90;58.60
37910;DHT22;23741;49.446;8.754;2023-07-31T08:57:04;22.00;58.60
37910;DHT22;23741;49.446;8.754;2023-07-31T08:59:06;22.00;58.60
37910;DHT22;23741;49.446;8.754;2023-07-31T09:01:08;22.00;58.70
37910;DHT22;23741;49.446;8.754;2023-07-31T09:03:15;22.00;58.80
37910;DHT22;23741;49.446;8.754;2023-07-31T09:05:19;22.10;58.60
37910;DHT22;23741;49.446;8.754;2023-07-31T09:07:21;22.10;58.20
37910;DHT22;23741;49.446;8.754;2023-07-31T09:09:23;22.20;58.30
37910;DHT22;23741;49.446;8.754;2023-07-31T09:11:25;22.20;58.30
37910;DHT22;23741;49.446;8.754;2023-07-31T09:13:29;22.20;58.30
37910;DHT22;23741;49.446;8.754;2023-07-31T09:15:31;22.20;58.20
37910;DHT22;23741;49.446;8.754;2023-07-31T09:17:39;22.30;58.10
37910;DHT22;23741;49.446;8.754;2023-07-31T09:19:41;22.30;58.20
37910;DHT22;23741;49.446;8.754;2023-07-31T09:21:49;22.40;58.00
37910;DHT22;23741;49.446;8.754;2023-07-31T09:23:51;22.40;58.80
37910;DHT22;23741;49.446;8.754;2023-07-31T09:25:56;22.40;57.80
37910;DHT22;23741;49.446;8.754;2023-07-31T09:28:09;22.40;57.60
37910;DHT22;23741;49.446;8.754;2023-07-31T09:30:11;22.50;57.80
37910;DHT22;23741;49.446;8.754;2023-07-31T09:32:16;22.50;57.80
37910;DHT22;23741;49.446;8.754;2023-07-31T09:34:19;22.50;57.50
37910;DHT22;23741;49.446;8.754;2023-07-31T09:36:21;22.50;57.30
37910;DHT22;23741;49.446;8.754;2023-07-31T09:38:24;22.60;57.50
37910;DHT22;23741;49.446;8.754;2023-07-31T09:40:26;22.60;57.40
37910;DHT22;23741;49.446;8.754;2023-07-31T09:42:28;22.70;57.60
37910;DHT22;23741;49.446;8.754;2023-07-31T09:44:41;22.70;57.50
37910;DHT22;23741;49.446;8.754;2023-07-31T09:46:43;22.70;57.60
37910;DHT22;23741;49.446;8.754;2023-07-31T09:48:46;22.70;57.30
37910;DHT22;23741;49.446;8.754;2023-07-31T09:50:48;22.80;57.30
37910;DHT22;23741;49.446;8.754;2023-07-31T09:52:51;22.80;57.30
37910;DHT22;23741;49.446;8.754;2023-07-31T09:54:54;22.90;57.60
37910;DHT22;23741;49.446;8.754;2023-07-31T09:56:56;22.90;57.50
37910;DHT22;23741;49.446;8.754;2023-07-31T09:59:01;22.90;56.90
37910;DHT22;23741;49.446;8.754;2023-07-31T10:01:03;23.00;56.80
37910;DHT22;23741;49.446;8.754;2023-07-31T10:03:10;23.00;56.70
37910;DHT22;23741;49.446;8.754;2023-07-31T10:05:14;23.10;56.40
37910;DHT22;23741;49.446;8.754;2023-07-31T10:07:18;23.10;56.40
37910;DHT22;23741;49.446;8.754;2023-07-31T10:09:21;23.10;56.30
37910;DHT22;23741;49.446;8.754;2023-07-31T10:11:27;23.20;56.40
37910;DHT22;23741;49.446;8.754;2023-07-31T10:13:32;23.20;56.40
37910;DHT22;23741;49.446;8.754;2023-07-31T10:15:34;23.20;56.40
37910;DHT22;23741;49.446;8.754;2023-07-31T10:17:37;23.30;56.60
37910;DHT22;23741;49.446;8.754;2023-07-31T10:19:41;23.30;56.40
37910;DHT22;23741;49.446;8.754;2023-07-31T10:21:43;23.30;55.90
37910;DHT22;23741;49.446;8.754;2023-07-31T10:23:47;23.30;55.80
37910;DHT22;23741;49.446;8.754;2023-07-31T10:25:53;23.30;56.10
37910;DHT22;23741;49.446;8.754;2023-07-31T10:27:57;23.30;55.80
37910;DHT22;23741;49.446;8.754;2023-07-31T10:29:59;23.30;55.50
37910;DHT22;23741;49.446;8.754;2023-07-31T10:32:03;23.30;55.80
37910;DHT22;23741;49.446;8.754;2023-07-31T10:34:08;23.30;55.80
37910;DHT22;23741;49.446;8.754;2023-07-31T10:36:20;23.30;55.80
37910;DHT22;23741;49.446;8.754;2023-07-31T10:38:23;23.40;55.90
37910;DHT22;23741;49.446;8.754;2023-07-31T10:40:27;23.40;56.10
37910;DHT22;23741;49.446;8.754;2023-07-31T10:42:48;23.40;56.40
37910;DHT22;23741;49.446;8.754;2023-07-31T10:44:57;23.40;56.00
37910;DHT22;23741;49.446;8.754;2023-07-31T10:47:00;23.40;56.10
37910;DHT22;23741;49.446;8.754;2023-07-31T10:49:02;23.40;56.00
37910;DHT22;23741;49.446;8.754;2023-07-31T10:51:08;23.50;55.90
37910;DHT22;23741;49.446;8.754;2023-07-31T10:53:24;23.50;55.70
37910;DHT22;23741;49.446;8.754;2023-07-31T10:55:27;23.60;56.00
37910;DHT22;23741;49.446;8.754;2023-07-31T10:57:35;23.60;55.80
37910;DHT22;23741;49.446;8.754;2023-07-31T10:59:37;23.70;55.50
37910;DHT22;23741;49.446;8.754;2023-07-31T11:01:51;23.70;55.80
37910;DHT22;23741;49.446;8.754;2023-07-31T11:03:56;23.80;55.10
37910;DHT22;23741;49.446;8.754;2023-07-31T11:08:00;23.80;55.30
37910;DHT22;23741;49.446;8.754;2023-07-31T11:10:11;23.80;55.00
37910;DHT22;23741;49.446;8.754;2023-07-31T11:12:13;23.80;55.30
37910;DHT22;23741;49.446;8.754;2023-07-31T11:14:15;23.90;54.90
37910;DHT22;23741;49.446;8.754;2023-07-31T11:16:21;23.90;55.10
37910;DHT22;23741;49.446;8.754;2023-07-31T11:18:24;23.90;54.80
37910;DHT22;23741;49.446;8.754;2023-07-31T11:20:29;23.90;54.90
37910;DHT22;23741;49.446;8.754;2023-07-31T11:22:31;23.90;54.80
37910;DHT22;23741;49.446;8.754;2023-07-31T11:24:32;23.90;54.80
37910;DHT22;23741;49.446;8.754;2023-07-31T11:26:35;23.90;55.00
37910;DHT22;23741;49.446;8.754;2023-07-31T11:28:37;24.00;54.90
37910;DHT22;23741;49.446;8.754;2023-07-31T11:30:40;24.00;55.00
37910;DHT22;23741;49.446;8.754;2023-07-31T11:32:42;24.00;55.20
37910;DHT22;23741;49.446;8.754;2023-07-31T11:34:54;24.10;55.00
37910;DHT22;23741;49.446;8.754;2023-07-31T11:36:56;24.10;54.70
37910;DHT22;23741;49.446;8.754;2023-07-31T11:39:08;24.10;54.90
37910;DHT22;23741;49.446;8.754;2023-07-31T11:41:13;24.10;54.40
37910;DHT22;23741;49.446;8.754;2023-07-31T11:43:15;24.20;55.20
37910;DHT22;23741;49.446;8.754;2023-07-31T11:45:18;24.30;54.90
37910;DHT22;23741;49.446;8.754;2023-07-31T11:47:20;24.30;54.80
37910;DHT22;23741;49.446;8.754;2023-07-31T11:49:22;24.40;54.80
37910;DHT22;23741;49.446;8.754;2023-07-31T11:51:24;24.50;54.50
37910;DHT22;23741;49.446;8.754;2023-07-31T11:53:31;24.50;53.90
37910;DHT22;23741;49.446;8.754;2023-07-31T11:55:35;24.50;53.60
37910;DHT22;23741;49.446;8.754;2023-07-31T11:57:39;24.60;53.30
37910;DHT22;23741;49.446;8.754;2023-07-31T11:59:42;24.60;53.20
37910;DHT22;23741;49.446;8.754;2023-07-31T12:01:44;24.60;53.30
37910;DHT22;23741;49.446;8.754;2023-07-31T12:03:47;24.50;53.40
37910;DHT22;23741;49.446;8.754;2023-07-31T12:05:50;24.50;53.40
37910;DHT22;23741;49.446;8.754;2023-07-31T12:07:55;24.50;53.60
37910;DHT22;23741;49.446;8.754;2023-07-31T12:09:57;24.50;53.40
37910;DHT22;23741;49.446;8.754;2023-07-31T12:11:59;24.50;53.40
37910;DHT22;23741;49.446;8.754;2023-07-31T12:14:04;24.50;53.20
37910;DHT22;23741;49.446;8.754;2023-07-31T12:16:06;24.50;53.40
37910;DHT22;23741;49.446;8.754;2023-07-31T12:18:10;24.50;53.40
37910;DHT22;23741;49.446;8.754;2023-07-31T12:20:13;24.40;53.40
37910;DHT22;23741;49.446;8.754;2023-07-31T12:22:15;24.40;53.60
37910;DHT22;23741;49.446;8.754;2023-07-31T12:24:19;24.40;53.40
37910;DHT22;23741;49.446;8.754;2023-07-31T12:26:20;24.40;53.40
37910;DHT22;23741;49.446;8.754;2023-07-31T12:28:24;24.40;53.70
37910;DHT22;23741;49.446;8.754;2023-07-31T12:30:36;24.40;53.60
37910;DHT22;23741;49.446;8.754;2023-07-31T12:32:40;24.40;53.70
37910;DHT22;23741;49.446;8.754;2023-07-31T12:34:42;24.40;53.90
37910;DHT22;23741;49.446;8.754;2023-07-31T12:36:45;24.40;53.80
37910;DHT22;23741;49.446;8.754;2023-07-31T12:38:47;24.40;53.90
37910;DHT22;23741;49.446;8.754;2023-07-31T12:40:49;24.30;54.00
37910;DHT22;23741;49.446;8.754;2023-07-31T12:42:51;24.40;54.20
37910;DHT22;23741;49.446;8.754;2023-07-31T12:44:52;24.40;54.40
37910;DHT22;23741;49.446;8.754;2023-07-31T12:46:54;24.40;54.30
37910;DHT22;23741;49.446;8.754;2023-07-31T12:48:56;24.40;54.40
37910;DHT22;23741;49.446;8.754;2023-07-31T12:50:58;24.40;54.30
37910;DHT22;23741;49.446;8.754;2023-07-31T12:53:00;24.40;54.30
37910;DHT22;23741;49.446;8.754;2023-07-31T12:55:02;24.40;54.50
37910;DHT22;23741;49.446;8.754;2023-07-31T12:57:04;24.40;54.20
37910;DHT22;23741;49.446;8.754;2023-07-31T12:59:06;24.40;54.00
37910;DHT22;23741;49.446;8.754;2023-07-31T13:01:08;24.50;54.00
37910;DHT22;23741;49.446;8.754;2023-07-31T13:03:10;24.50;53.90
37910;DHT22;23741;49.446;8.754;2023-07-31T13:05:12;24.50;53.80
37910;DHT22;23741;49.446;8.754;2023-07-31T13:07:16;24.50;53.90
37910;DHT22;23741;49.446;8.754;2023-07-31T13:09:18;24.50;53.80